createdAt,value
2018-10-09T00:01:33.885Z,79.50
2018-10-09T00:04:02.211Z,79.00
2018-10-09T00:06:30.959Z,79.80
2018-10-09T00:08:59.364Z,78.90
2018-10-09T00:11:28.286Z,79.50
2018-10-09T00:13:57.106Z,77.80
2018-10-09T00:16:25.708Z,78.10
2018-10-09T00:18:53.962Z,78.10
2018-10-09T00:21:22.188Z,78.20
2018-10-09T00:23:50.501Z,77.80
2018-10-09T00:26:18.777Z,76.90
2018-10-09T00:28:47.445Z,76.30
2018-10-09T00:31:15.700Z,76.50
2018-10-09T00:33:44.248Z,77.00
2018-10-09T00:36:12.616Z,77.90
2018-10-09T00:38:40.992Z,78.00
2018-10-09T00:41:09.615Z,78.00
2018-10-09T00:43:38.043Z,77.90
2018-10-09T00:46:06.716Z,79.10
2018-10-09T00:48:35.404Z,80.30
2018-10-09T00:51:04.108Z,81.60
2018-10-09T00:53:32.432Z,80.00
2018-10-09T00:56:01.641Z,79.70
2018-10-09T00:58:30.018Z,80.50
2018-10-09T01:00:58.568Z,81.20
2018-10-09T01:03:26.909Z,80.50
2018-10-09T01:05:55.215Z,80.60
2018-10-09T01:08:23.521Z,80.90
2018-10-09T01:10:52.101Z,82.60
2018-10-09T01:13:20.421Z,81.70
2018-10-09T01:15:48.873Z,81.40
2018-10-09T01:18:17.186Z,81.40
2018-10-09T01:20:45.616Z,82.50
2018-10-09T01:23:14.140Z,82.00
2018-10-09T01:25:43.135Z,82.80
2018-10-09T01:28:11.413Z,82.30
2018-10-09T01:30:40.027Z,82.90
2018-10-09T01:33:08.589Z,82.50
2018-10-09T01:38:11.933Z,80.60
2018-10-09T01:40:40.456Z,81.30
2018-10-09T01:43:08.725Z,81.60
2018-10-09T01:45:37.207Z,82.10
2018-10-09T01:48:06.266Z,82.50
2018-10-09T01:50:34.676Z,82.70
2018-10-09T01:53:03.028Z,82.70
2018-10-09T01:55:31.559Z,83.20
2018-10-09T01:58:00.415Z,83.80
2018-10-09T02:00:28.604Z,83.40
2018-10-09T02:02:57.888Z,83.90
2018-10-09T02:05:26.633Z,83.70
2018-10-09T02:07:55.779Z,83.90
2018-10-09T02:10:24.266Z,82.70
2018-10-09T02:12:53.097Z,84.10
2018-10-09T02:15:21.401Z,84.50
2018-10-09T02:17:50.982Z,85.30
2018-10-09T02:20:19.227Z,85.10
2018-10-09T02:22:48.923Z,85.00
2018-10-09T02:25:17.474Z,85.00
2018-10-09T02:27:45.798Z,84.60
2018-10-09T02:30:14.173Z,84.50
2018-10-09T02:32:42.846Z,83.40
2018-10-09T02:35:11.539Z,81.90
2018-10-09T02:37:40.095Z,82.50
2018-10-09T02:40:09.235Z,82.50
2018-10-09T02:42:37.750Z,82.50
2018-10-09T02:45:07.055Z,82.40
2018-10-09T02:47:35.289Z,81.60
2018-10-09T02:50:04.648Z,82.30
2018-10-09T02:52:32.949Z,82.40
2018-10-09T02:55:01.510Z,82.20
2018-10-09T02:57:29.813Z,82.90
2018-10-09T02:59:58.062Z,82.40
2018-10-09T03:02:26.562Z,83.00
2018-10-09T03:04:55.396Z,83.40
2018-10-09T03:07:23.640Z,84.30
2018-10-09T03:12:20.024Z,84.30
2018-10-09T03:14:49.671Z,84.60
2018-10-09T03:17:18.773Z,83.90
2018-10-09T03:19:47.271Z,84.10
2018-10-09T03:22:17.084Z,84.70
2018-10-09T03:24:45.326Z,83.40
2018-10-09T03:27:13.999Z,83.60
2018-10-09T03:29:42.790Z,83.60
2018-10-09T03:32:11.378Z,84.30
2018-10-09T03:34:40.311Z,82.10
2018-10-09T03:37:08.574Z,82.50
2018-10-09T03:39:37.112Z,83.20
2018-10-09T03:42:05.360Z,84.20
2018-10-09T03:44:33.617Z,84.60
2018-10-09T03:47:02.420Z,84.50
2018-10-09T03:49:31.794Z,84.10
2018-10-09T03:52:00.118Z,84.60
2018-10-09T03:54:28.356Z,86.20
2018-10-09T03:56:56.582Z,87.60
2018-10-09T03:59:24.879Z,88.60
2018-10-09T04:01:54.496Z,89.70
2018-10-09T04:04:22.765Z,90.10
2018-10-09T04:06:51.085Z,90.30
2018-10-09T04:09:19.907Z,90.10
2018-10-09T04:11:48.553Z,90.40
2018-10-09T04:14:17.275Z,90.10
2018-10-09T04:16:45.932Z,90.00
2018-10-09T04:19:14.242Z,89.10
2018-10-09T04:26:40.140Z,90.20
2018-10-09T04:29:08.727Z,90.60
2018-10-09T04:31:37.014Z,90.80
2018-10-09T04:34:06.387Z,90.60
2018-10-09T04:36:34.671Z,90.40
2018-10-09T04:41:44.297Z,90.60
2018-10-09T04:44:12.533Z,90.70
2018-10-09T04:46:41.781Z,90.60
2018-10-09T04:49:10.285Z,90.70
2018-10-09T04:51:38.594Z,90.30
2018-10-09T04:54:06.869Z,90.20
2018-10-09T04:56:35.183Z,90.30
2018-10-09T04:59:03.497Z,89.80
2018-10-09T05:01:31.738Z,87.70
2018-10-09T05:04:00.041Z,88.30
2018-10-09T05:06:28.533Z,87.20
2018-10-09T05:08:58.052Z,87.60
2018-10-09T05:11:26.348Z,86.90
2018-10-09T05:13:54.749Z,86.80
2018-10-09T05:16:23.138Z,86.70
2018-10-09T05:18:51.393Z,86.90
2018-10-09T05:21:19.703Z,86.90
2018-10-09T05:23:48.278Z,86.70
2018-10-09T05:28:54.292Z,86.20
2018-10-09T05:31:22.742Z,87.70
2018-10-09T05:33:50.934Z,87.70
2018-10-09T05:36:19.221Z,87.70
2018-10-09T05:38:47.719Z,87.50
2018-10-09T05:41:16.223Z,86.80
2018-10-09T05:43:44.767Z,87.10
2018-10-09T05:46:13.013Z,85.60
2018-10-09T05:48:41.545Z,83.70
2018-10-09T05:51:09.877Z,84.20
2018-10-09T05:53:38.392Z,84.70
2018-10-09T05:56:07.473Z,85.30
2018-10-09T05:58:36.685Z,85.00
2018-10-09T06:01:05.061Z,85.00
2018-10-09T06:03:33.308Z,84.40
2018-10-09T06:06:02.021Z,85.00
2018-10-09T06:08:30.986Z,84.90
2018-10-09T06:10:59.232Z,83.80
2018-10-09T06:13:27.878Z,84.20
2018-10-09T06:15:56.449Z,83.90
2018-10-09T06:18:24.728Z,83.20
2018-10-09T06:20:53.800Z,83.10
2018-10-09T06:25:50.283Z,82.00
2018-10-09T06:28:18.540Z,81.10
2018-10-09T06:30:46.926Z,80.90
2018-10-09T06:33:15.284Z,80.20
2018-10-09T06:35:43.604Z,78.60
2018-10-09T06:38:12.472Z,78.60
2018-10-09T06:40:41.284Z,79.50
2018-10-09T06:43:09.966Z,79.60
2018-10-09T06:45:38.582Z,78.60
2018-10-09T06:48:07.304Z,78.00
2018-10-09T06:50:35.755Z,78.30
2018-10-09T06:53:04.704Z,78.70
2018-10-09T06:55:33.108Z,79.10
2018-10-09T06:58:01.407Z,79.10
2018-10-09T07:00:30.981Z,78.90
2018-10-09T07:02:59.309Z,78.60
2018-10-09T07:05:28.119Z,78.70
2018-10-09T07:07:56.473Z,77.90
2018-10-09T07:10:24.924Z,77.70
2018-10-09T07:12:53.335Z,77.50
2018-10-09T07:15:21.942Z,77.70
2018-10-09T07:17:50.197Z,77.70
2018-10-09T07:20:19.105Z,78.30
2018-10-09T07:22:47.468Z,76.30
2018-10-09T07:25:15.780Z,76.80
2018-10-09T07:27:44.360Z,75.80
2018-10-09T07:30:12.532Z,76.00
2018-10-09T07:35:09.728Z,75.50
2018-10-09T07:40:08.351Z,74.60
2018-10-09T07:42:37.351Z,75.20
2018-10-09T07:45:06.629Z,75.70
2018-10-09T07:47:35.123Z,75.60
2018-10-09T07:50:03.444Z,74.30
2018-10-09T07:52:31.657Z,74.30
2018-10-09T07:57:28.842Z,74.10
2018-10-09T07:59:57.423Z,73.70
2018-10-09T08:02:25.719Z,75.10
2018-10-09T08:04:54.072Z,72.90
2018-10-09T08:07:22.921Z,71.60
2018-10-09T08:09:51.246Z,72.10
2018-10-09T08:12:19.543Z,71.30
2018-10-09T08:14:47.847Z,70.00
2018-10-09T08:17:16.430Z,69.60
2018-10-09T08:19:45.597Z,69.30
2018-10-09T08:22:15.451Z,70.00
2018-10-09T08:24:44.670Z,69.50
2018-10-09T08:27:13.040Z,70.20
2018-10-09T08:29:41.758Z,70.20
2018-10-09T08:32:10.300Z,71.00
2018-10-09T08:34:38.626Z,69.70
2018-10-09T08:37:07.198Z,69.70
2018-10-09T08:39:35.716Z,68.60
2018-10-09T08:42:03.999Z,68.60
2018-10-09T08:44:33.663Z,68.90
2018-10-09T08:47:04.064Z,68.60
2018-10-09T08:49:32.334Z,66.90
2018-10-09T08:52:07.537Z,67.70
2018-10-09T08:54:35.828Z,67.10
2018-10-09T08:57:04.096Z,66.60
2018-10-09T08:59:33.142Z,66.20
2018-10-09T09:02:01.678Z,66.70
2018-10-09T09:04:30.235Z,66.50
2018-10-09T09:06:58.463Z,64.60
2018-10-09T09:09:27.193Z,64.80
2018-10-09T09:11:55.422Z,65.10
2018-10-09T09:14:24.804Z,64.50
2018-10-09T09:16:54.199Z,63.10
2018-10-09T09:19:23.037Z,62.70
2018-10-09T09:21:51.296Z,62.80
2018-10-09T09:24:19.561Z,62.30
2018-10-09T09:26:48.516Z,62.80
2018-10-09T09:29:16.793Z,61.70
2018-10-09T09:31:45.818Z,60.20
2018-10-09T09:34:17.114Z,59.90
2018-10-09T09:36:46.300Z,60.50
2018-10-09T09:44:11.826Z,60.40
2018-10-09T09:46:40.081Z,59.10
2018-10-09T09:49:09.420Z,59.40
2018-10-09T09:51:37.800Z,58.90
2018-10-09T09:54:06.490Z,59.40
2018-10-09T09:56:34.774Z,58.30
2018-10-09T09:59:03.660Z,58.80
2018-10-09T10:01:37.697Z,57.60
2018-10-09T10:04:14.534Z,57.50
2018-10-09T10:06:43.062Z,57.30
2018-10-09T10:09:11.604Z,57.00
2018-10-09T10:11:40.076Z,57.10
2018-10-09T10:14:09.783Z,56.40
2018-10-09T10:16:38.028Z,55.20
2018-10-09T10:19:07.040Z,54.10
2018-10-09T10:21:35.304Z,54.60
2018-10-09T10:24:03.609Z,53.10
2018-10-09T10:26:31.859Z,52.30
2018-10-09T10:29:00.132Z,51.10
2018-10-09T10:31:28.727Z,50.70
2018-10-09T10:33:57.169Z,51.20
2018-10-09T10:36:26.270Z,51.40
2018-10-09T10:38:55.732Z,50.50
2018-10-09T10:41:23.979Z,50.00
2018-10-09T10:43:53.661Z,50.90
2018-10-09T10:46:26.035Z,49.30
2018-10-09T10:49:09.893Z,49.70
2018-10-09T10:51:38.479Z,48.30
2018-10-09T10:54:07.223Z,49.00
2018-10-09T10:56:36.214Z,48.70
2018-10-09T10:59:04.589Z,48.20
2018-10-09T11:01:33.388Z,46.30
2018-10-09T11:04:01.640Z,46.90
2018-10-09T11:06:29.941Z,45.30
2018-10-09T11:08:58.595Z,45.80
2018-10-09T11:11:26.998Z,45.00
2018-10-09T11:13:55.885Z,44.40
2018-10-09T11:16:24.753Z,44.40
2018-10-09T11:18:55.966Z,44.70
2018-10-09T11:21:25.674Z,45.80
2018-10-09T11:23:54.395Z,45.90
2018-10-09T11:26:22.690Z,45.50
2018-10-09T11:28:51.077Z,45.50
2018-10-09T11:31:19.989Z,44.90
2018-10-09T11:33:48.701Z,45.30
2018-10-09T11:36:17.524Z,44.80
2018-10-09T11:38:46.054Z,45.10
2018-10-09T11:41:14.694Z,45.10
2018-10-09T11:43:42.933Z,45.20
2018-10-09T11:46:11.680Z,45.80
2018-10-09T11:48:39.934Z,45.00
2018-10-09T11:51:08.252Z,44.70
2018-10-09T11:53:36.508Z,44.50
2018-10-09T11:56:04.895Z,43.00
2018-10-09T11:58:33.821Z,42.50
2018-10-09T12:01:05.136Z,42.40
2018-10-09T12:03:33.491Z,42.90
2018-10-09T12:06:02.384Z,42.60
2018-10-09T12:08:30.812Z,41.90
2018-10-09T12:10:59.434Z,42.40
2018-10-09T12:13:28.363Z,42.60
2018-10-09T12:15:56.629Z,42.80
2018-10-09T12:18:24.914Z,41.30
2018-10-09T12:20:54.157Z,41.00
2018-10-09T12:23:22.490Z,40.40
2018-10-09T12:25:52.800Z,40.80
2018-10-09T12:28:22.505Z,40.00
2018-10-09T12:30:54.334Z,39.80
2018-10-09T12:33:22.798Z,40.30
2018-10-09T12:35:52.097Z,40.10
2018-10-09T12:38:21.425Z,40.30
2018-10-09T12:40:50.781Z,39.40
2018-10-09T12:43:20.307Z,39.40
2018-10-09T12:45:51.146Z,40.10
2018-10-09T12:48:21.237Z,40.00
2018-10-09T12:50:49.643Z,40.10
2018-10-09T12:53:19.276Z,40.70
2018-10-09T12:55:47.692Z,40.20
2018-10-09T12:58:16.286Z,40.30
2018-10-09T13:00:47.041Z,39.80
2018-10-09T13:03:16.686Z,40.30
2018-10-09T13:05:45.056Z,40.40
2018-10-09T13:08:13.577Z,40.40
2018-10-09T13:10:42.130Z,39.10
2018-10-09T13:13:11.637Z,38.40
2018-10-09T13:15:39.944Z,37.10
2018-10-09T13:18:08.369Z,37.60
2018-10-09T13:20:37.622Z,37.90
2018-10-09T13:23:06.750Z,37.40
2018-10-09T13:25:35.610Z,36.60
2018-10-09T13:28:04.124Z,36.40
2018-10-09T13:30:32.498Z,36.00
2018-10-09T13:33:00.913Z,34.00
2018-10-09T13:35:29.656Z,34.60
2018-10-09T13:37:57.958Z,32.60
2018-10-09T13:40:26.655Z,32.60
2018-10-09T13:42:55.597Z,32.70
2018-10-09T13:45:23.890Z,33.20
2018-10-09T13:47:53.100Z,33.30
2018-10-09T13:50:21.454Z,32.90
2018-10-09T13:52:49.919Z,32.00
2018-10-09T13:55:18.237Z,30.60
2018-10-09T13:57:46.515Z,29.10
2018-10-09T14:00:14.906Z,28.80
2018-10-09T14:02:43.553Z,28.00
2018-10-09T14:05:12.541Z,25.90
2018-10-09T14:07:41.621Z,26.20
2018-10-09T14:10:11.779Z,26.80
2018-10-09T14:12:40.811Z,27.00
2018-10-09T14:15:13.402Z,27.10
2018-10-09T14:17:42.561Z,27.40
2018-10-09T14:20:12.292Z,27.20
2018-10-09T14:22:40.923Z,27.20
2018-10-09T14:25:09.230Z,26.50
2018-10-09T14:27:38.639Z,25.50
2018-10-09T14:30:25.210Z,26.00
2018-10-09T14:32:53.665Z,24.30
2018-10-09T14:35:23.175Z,26.30
2018-10-09T14:37:52.568Z,25.00
2018-10-09T14:45:39.864Z,26.70
2018-10-09T14:48:08.156Z,27.50
2018-10-09T14:50:36.395Z,27.90
2018-10-09T14:53:04.688Z,28.30
2018-10-09T14:55:33.529Z,27.20
2018-10-09T14:58:01.969Z,27.70
2018-10-09T15:00:30.322Z,29.10
2018-10-09T15:02:58.800Z,29.10
2018-10-09T15:05:27.543Z,29.60
2018-10-09T15:07:56.663Z,30.90
2018-10-09T15:10:25.225Z,31.50
2018-10-09T15:12:53.738Z,31.00
2018-10-09T15:15:22.263Z,32.30
2018-10-09T15:17:51.410Z,32.90
2018-10-09T15:20:20.050Z,34.90
2018-10-09T15:22:48.429Z,35.40
2018-10-09T15:25:18.025Z,35.30
2018-10-09T15:27:46.604Z,36.30
2018-10-09T15:30:15.653Z,36.70
2018-10-09T15:32:43.884Z,36.50
2018-10-09T15:35:12.173Z,38.10
2018-10-09T15:37:41.126Z,38.20
2018-10-09T15:40:09.448Z,39.40
2018-10-09T15:42:38.611Z,39.00
2018-10-09T15:45:09.509Z,38.90
2018-10-09T15:47:38.105Z,38.90
2018-10-09T15:50:06.400Z,39.50
2018-10-09T15:52:34.787Z,40.30
2018-10-09T15:55:03.123Z,40.80
2018-10-09T15:57:31.845Z,41.50
2018-10-09T16:00:00.593Z,42.60
2018-10-09T16:02:29.767Z,43.00
2018-10-09T16:04:59.014Z,43.00
2018-10-09T16:07:27.611Z,43.10
2018-10-09T16:09:58.222Z,43.80
2018-10-09T16:12:26.901Z,43.90
2018-10-09T16:17:35.937Z,44.80
2018-10-09T16:20:05.325Z,45.30
2018-10-09T16:22:34.475Z,45.60
2018-10-09T16:25:03.571Z,46.10
2018-10-09T16:27:32.153Z,46.50
2018-10-09T16:30:00.492Z,46.90
2018-10-09T16:32:29.386Z,47.30
2018-10-09T16:34:58.733Z,47.40
2018-10-09T16:39:57.704Z,48.70
2018-10-09T16:42:26.355Z,49.30
2018-10-09T16:44:54.851Z,50.10
2018-10-09T16:47:23.333Z,50.50
2018-10-09T16:49:52.363Z,50.90
2018-10-09T16:52:21.242Z,51.50
2018-10-09T16:54:50.633Z,52.00
2018-10-09T16:57:19.555Z,51.90
2018-10-09T16:59:48.369Z,52.30
2018-10-09T17:02:17.417Z,52.50
2018-10-09T17:04:45.871Z,53.00
2018-10-09T17:07:16.659Z,53.20
2018-10-09T17:09:47.121Z,53.50
2018-10-09T17:12:19.193Z,53.70
2018-10-09T17:17:19.936Z,54.20
2018-10-09T17:19:49.535Z,54.70
2018-10-09T17:22:19.445Z,55.20
2018-10-09T17:24:48.057Z,55.30
2018-10-09T17:27:17.313Z,55.60
2018-10-09T17:29:46.648Z,55.40
2018-10-09T17:32:15.582Z,55.40
2018-10-09T17:34:45.609Z,56.00
2018-10-09T17:37:15.130Z,56.10
2018-10-09T17:42:12.300Z,56.20
2018-10-09T17:44:40.729Z,56.50
2018-10-09T17:47:10.288Z,56.70
2018-10-09T17:49:40.542Z,57.20
2018-10-09T17:52:10.792Z,57.50
2018-10-09T17:54:39.569Z,57.90
2018-10-09T17:57:09.576Z,58.30
2018-10-09T17:59:37.913Z,58.80
2018-10-09T18:02:07.730Z,58.80
2018-10-09T18:04:36.266Z,59.20
2018-10-09T18:07:06.618Z,60.10
2018-10-09T18:09:35.445Z,60.00
2018-10-09T18:12:05.067Z,60.50
2018-10-09T18:14:33.664Z,60.50
2018-10-09T18:17:03.300Z,61.00
2018-10-09T18:19:32.055Z,61.10
2018-10-09T18:22:00.734Z,61.60
2018-10-09T18:24:29.924Z,61.80
2018-10-09T18:26:58.379Z,62.20
2018-10-09T18:29:28.874Z,62.70
2018-10-09T18:31:58.309Z,63.30
2018-10-09T18:34:27.515Z,63.70
2018-10-09T18:36:55.877Z,64.10
2018-10-09T18:39:25.094Z,63.90
2018-10-09T18:41:54.030Z,64.30
2018-10-09T18:44:22.953Z,64.40
2018-10-09T18:46:51.474Z,64.30
2018-10-09T18:49:20.674Z,64.90
2018-10-09T18:51:49.546Z,64.50
2018-10-09T18:54:19.232Z,64.70
2018-10-09T18:56:47.954Z,64.10
2018-10-09T18:59:16.397Z,64.10
2018-10-09T19:01:45.864Z,64.10
2018-10-09T19:04:14.960Z,64.80
2018-10-09T19:06:43.438Z,64.90
2018-10-09T19:09:13.747Z,65.50
2018-10-09T19:11:42.766Z,65.40
2018-10-09T19:14:12.521Z,65.50
2018-10-09T19:16:43.068Z,65.90
2018-10-09T19:19:12.172Z,66.20
2018-10-09T19:21:40.813Z,66.40
2018-10-09T19:24:09.374Z,66.20
2018-10-09T19:26:37.625Z,66.20
2018-10-09T19:29:06.804Z,66.90
2018-10-09T19:31:35.834Z,66.80
2018-10-09T19:36:48.797Z,66.90
2018-10-09T19:39:18.110Z,67.10
2018-10-09T19:41:46.484Z,67.40
2018-10-09T19:44:16.143Z,68.20
2018-10-09T19:46:44.714Z,68.10
2018-10-09T19:49:13.084Z,67.70
2018-10-09T19:51:41.898Z,68.30
2018-10-09T19:54:10.478Z,67.80
2018-10-09T19:56:38.854Z,68.40
2018-10-09T19:59:07.556Z,68.90
2018-10-09T20:01:36.160Z,69.20
2018-10-09T20:04:04.716Z,69.50
2018-10-09T20:06:33.628Z,69.50
2018-10-09T20:09:02.092Z,69.40
2018-10-09T20:11:30.471Z,69.50
2018-10-09T20:13:58.843Z,70.20
2018-10-09T20:16:30.387Z,70.10
2018-10-09T20:18:58.679Z,70.20
2018-10-09T20:21:26.934Z,70.00
2018-10-09T20:23:55.250Z,69.90
2018-10-09T20:26:24.256Z,70.50
2018-10-09T20:28:53.864Z,70.20
2018-10-09T20:31:23.199Z,70.80
2018-10-09T20:33:51.568Z,70.50
2018-10-09T20:36:21.508Z,70.90
2018-10-09T20:38:50.099Z,71.30
2018-10-09T20:41:18.638Z,71.70
2018-10-09T20:43:47.046Z,71.20
2018-10-09T20:46:15.337Z,71.10
2018-10-09T20:48:43.708Z,71.00
2018-10-09T20:51:12.339Z,71.60
2018-10-09T20:53:41.308Z,71.30
2018-10-09T20:56:09.918Z,72.10
2018-10-09T20:58:38.682Z,72.00
2018-10-09T21:01:07.397Z,73.20
2018-10-09T21:03:35.879Z,72.80
2018-10-09T21:06:04.479Z,72.70
2018-10-09T21:08:32.967Z,73.10
2018-10-09T21:11:01.330Z,73.10
2018-10-09T21:13:29.633Z,73.50
2018-10-09T21:15:58.021Z,73.50
2018-10-09T21:18:26.297Z,73.00
2018-10-09T21:20:54.572Z,73.20
2018-10-09T21:23:24.049Z,73.50
2018-10-09T21:25:52.690Z,74.20
2018-10-09T21:28:21.014Z,74.30
2018-10-09T21:30:49.324Z,75.00
2018-10-09T21:33:18.120Z,75.20
2018-10-09T21:35:47.433Z,75.00
2018-10-09T21:38:15.801Z,75.50
2018-10-09T21:40:44.312Z,75.70
2018-10-09T21:43:13.171Z,75.60
2018-10-09T21:45:42.161Z,76.10
2018-10-09T21:48:10.433Z,76.70
2018-10-09T21:50:40.901Z,76.60
2018-10-09T21:53:09.486Z,77.10
2018-10-09T21:55:38.822Z,78.40
2018-10-09T22:00:42.258Z,77.10
2018-10-09T22:03:10.608Z,76.70
2018-10-09T22:05:39.819Z,76.50
2018-10-09T22:08:08.533Z,76.80
2018-10-09T22:10:38.328Z,78.60
2018-10-09T22:13:07.333Z,78.30
2018-10-09T22:15:37.608Z,78.30
2018-10-09T22:18:06.003Z,78.40
2018-10-09T22:20:34.429Z,79.10
2018-10-09T22:23:04.424Z,78.90
2018-10-09T22:25:33.072Z,79.20
2018-10-09T22:28:01.335Z,79.60
2018-10-09T22:35:26.473Z,78.30
2018-10-09T22:37:54.796Z,78.30
2018-10-09T22:40:23.601Z,78.90
2018-10-09T22:42:52.424Z,77.90
2018-10-09T22:45:20.868Z,78.60
2018-10-09T22:47:49.658Z,79.10
2018-10-09T22:50:18.033Z,78.90
2018-10-09T22:52:46.868Z,79.50
2018-10-09T22:55:15.164Z,80.10
2018-10-09T22:57:43.985Z,80.70
2018-10-09T23:00:12.904Z,79.70
2018-10-09T23:02:41.768Z,79.40
2018-10-09T23:05:10.362Z,78.60
2018-10-09T23:07:39.351Z,79.70
2018-10-09T23:10:07.879Z,79.60
2018-10-09T23:12:37.121Z,80.10
2018-10-09T23:15:06.687Z,80.60
2018-10-09T23:17:35.098Z,80.20
2018-10-09T23:20:04.686Z,80.60
2018-10-09T23:22:33.313Z,80.80
2018-10-09T23:25:01.855Z,82.40
2018-10-09T23:27:30.760Z,81.60
2018-10-09T23:29:58.992Z,81.30
2018-10-09T23:32:27.345Z,81.80
2018-10-09T23:34:56.113Z,81.30
2018-10-09T23:37:24.707Z,81.10
2018-10-09T23:39:53.139Z,82.50
2018-10-09T23:42:21.439Z,82.40
2018-10-09T23:44:50.054Z,82.70
2018-10-09T23:47:18.944Z,83.40
2018-10-09T23:49:47.159Z,83.30
2018-10-09T23:52:15.424Z,83.30
2018-10-09T23:54:44.464Z,83.30
2018-10-09T23:57:12.814Z,82.40
2018-10-09T23:59:41.374Z,81.40
